sensor_id;sensor_type;location;lat;lon;timestamp;temperature;humidity
18067;DHT22;9158;51.528;7.192;2022-09-16T00:00:04;13.80;99.90
18067;DHT22;9158;51.528;7.192;2022-09-16T00:00:35;13.80;99.90
18067;DHT22;9158;51.528;7.192;2022-09-16T00:01:11;13.80;99.90
18067;DHT22;9158;51.528;7.192;2022-09-16T00:01:42;13.80;99.90
18067;DHT22;9158;51.528;7.192;2022-09-16T00:02:14;13.80;99.90
18067;DHT22;9158;51.528;7.192;2022-09-16T00:02:45;13.80;99.90
18067;DHT22;9158;51.528;7.192;2022-09-16T00:03:16;13.80;99.90
18067;DHT22;9158;51.528;7.192;2022-09-16T00:03:53;13.80;99.90
18067;DHT22;9158;51.528;7.192;2022-09-16T00:04:24;13.80;99.90
18067;DHT22;9158;51.528;7.192;2022-09-16T00:04:56;13.80;99.90
18067;DHT22;9158;51.528;7.192;2022-09-16T00:05:27;13.80;99.90
18067;DHT22;9158;51.528;7.192;2022-09-16T00:05:59;13.80;99.90
18067;DHT22;9158;51.528;7.192;2022-09-16T00:06:31;13.80;99.90
18067;DHT22;9158;51.528;7.192;2022-09-16T00:07:02;13.90;99.90
18067;DHT22;9158;51.528;7.192;2022-09-16T00:07:34;13.80;99.90
18067;DHT22;9158;51.528;7.192;2022-09-16T00:08:06;13.80;99.90
18067;DHT22;9158;51.528;7.192;2022-09-16T00:08:37;13.90;99.90
18067;DHT22;9158;51.528;7.192;2022-09-16T00:09:10;13.90;99.90
18067;DHT22;9158;51.528;7.192;2022-09-16T00:09:41;13.90;99.90
18067;DHT22;9158;51.528;7.192;2022-09-16T00:10:13;13.90;99.90
18067;DHT22;9158;51.528;7.192;2022-09-16T00:10:44;13.90;99.90
18067;DHT22;9158;51.528;7.192;2022-09-16T00:11:17;13.90;99.90
18067;DHT22;9158;51.528;7.192;2022-09-16T00:11:49;13.90;99.90
18067;DHT22;9158;51.528;7.192;2022-09-16T00:12:20;13.90;99.90
18067;DHT22;9158;51.528;7.192;2022-09-16T00:12:51;13.90;99.90
18067;DHT22;9158;51.528;7.192;2022-09-16T00:13:22;13.90;99.90
18067;DHT22;9158;51.528;7.192;2022-09-16T00:13:54;13.90;99.90
18067;DHT22;9158;51.528;7.192;2022-09-16T00:14:25;13.90;99.90
18067;DHT22;9158;51.528;7.192;2022-09-16T00:14:56;13.90;99.90
18067;DHT22;9158;51.528;7.192;2022-09-16T00:15:28;13.90;99.90
18067;DHT22;9158;51.528;7.192;2022-09-16T00:15:59;13.90;99.90
18067;DHT22;9158;51.528;7.192;2022-09-16T00:16:30;13.90;99.90
18067;DHT22;9158;51.528;7.192;2022-09-16T00:17:02;13.90;99.90
18067;DHT22;9158;51.528;7.192;2022-09-16T00:17:33;13.80;99.90
18067;DHT22;9158;51.528;7.192;2022-09-16T00:18:04;13.80;99.90
18067;DHT22;9158;51.528;7.192;2022-09-16T00:18:35;13.80;99.90
18067;DHT22;9158;51.528;7.192;2022-09-16T00:19:07;13.80;99.90
18067;DHT22;9158;51.528;7.192;2022-09-16T00:19:38;13.80;99.90
18067;DHT22;9158;51.528;7.192;2022-09-16T00:20:10;13.70;99.90
18067;DHT22;9158;51.528;7.192;2022-09-16T00:20:43;13.70;99.90
18067;DHT22;9158;51.528;7.192;2022-09-16T00:21:14;13.70;99.90
18067;DHT22;9158;51.528;7.192;2022-09-16T00:21:50;13.70;99.90
18067;DHT22;9158;51.528;7.192;2022-09-16T00:22:20;13.70;99.90
18067;DHT22;9158;51.528;7.192;2022-09-16T00:22:51;13.70;99.90
18067;DHT22;9158;51.528;7.192;2022-09-16T00:23:23;13.70;99.90
18067;DHT22;9158;51.528;7.192;2022-09-16T00:23:55;13.60;99.90
18067;DHT22;9158;51.528;7.192;2022-09-16T00:24:26;13.60;99.90
18067;DHT22;9158;51.528;7.192;2022-09-16T00:24:58;13.60;99.90
18067;DHT22;9158;51.528;7.192;2022-09-16T00:25:28;13.60;99.90
18067;DHT22;9158;51.528;7.192;2022-09-16T00:26:00;13.70;99.90
18067;DHT22;9158;51.528;7.192;2022-09-16T00:26:32;13.70;99.90
18067;DHT22;9158;51.528;7.192;2022-09-16T00:27:04;13.70;99.90
18067;DHT22;9158;51.528;7.192;2022-09-16T00:27:35;13.70;99.90
18067;DHT22;9158;51.528;7.192;2022-09-16T00:28:06;13.70;99.90
18067;DHT22;9158;51.528;7.192;2022-09-16T00:28:38;13.70;99.90
18067;DHT22;9158;51.528;7.192;2022-09-16T00:29:10;13.70;99.90
18067;DHT22;9158;51.528;7.192;2022-09-16T00:29:41;13.70;99.90
18067;DHT22;9158;51.528;7.192;2022-09-16T00:30:12;13.70;99.90
18067;DHT22;9158;51.528;7.192;2022-09-16T00:30:44;13.70;99.90
18067;DHT22;9158;51.528;7.192;2022-09-16T00:31:15;13.70;99.90
18067;DHT22;9158;51.528;7.192;2022-09-16T00:31:46;13.70;99.90
18067;DHT22;9158;51.528;7.192;2022-09-16T00:32:18;13.70;99.90
18067;DHT22;9158;51.528;7.192;2022-09-16T00:32:49;13.70;99.90
18067;DHT22;9158;51.528;7.192;2022-09-16T00:33:20;13.70;99.90
18067;DHT22;9158;51.528;7.192;2022-09-16T00:33:51;13.70;99.90
18067;DHT22;9158;51.528;7.192;2022-09-16T00:34:23;13.70;99.90
18067;DHT22;9158;51.528;7.192;2022-09-16T00:34:54;13.70;99.90
18067;DHT22;9158;51.528;7.192;2022-09-16T00:35:25;13.70;99.90
18067;DHT22;9158;51.528;7.192;2022-09-16T00:36:05;13.60;99.90
18067;DHT22;9158;51.528;7.192;2022-09-16T00:36:37;13.60;99.90
18067;DHT22;9158;51.528;7.192;2022-09-16T00:37:07;13.60;99.90
18067;DHT22;9158;51.528;7.192;2022-09-16T00:37:39;13.60;99.90
18067;DHT22;9158;51.528;7.192;2022-09-16T00:38:10;13.60;99.90
18067;DHT22;9158;51.528;7.192;2022-09-16T00:38:41;13.70;99.90
18067;DHT22;9158;51.528;7.192;2022-09-16T00:39:14;13.70;99.90
18067;DHT22;9158;51.528;7.192;2022-09-16T00:39:46;13.60;99.90
18067;DHT22;9158;51.528;7.192;2022-09-16T00:40:18;13.70;99.90
18067;DHT22;9158;51.528;7.192;2022-09-16T00:40:50;13.70;99.90
18067;DHT22;9158;51.528;7.192;2022-09-16T00:41:22;13.60;99.90
18067;DHT22;9158;51.528;7.192;2022-09-16T00:41:55;13.60;99.90
18067;DHT22;9158;51.528;7.192;2022-09-16T00:42:27;13.60;99.90
18067;DHT22;9158;51.528;7.192;2022-09-16T00:42:58;13.60;99.90
18067;DHT22;9158;51.528;7.192;2022-09-16T00:43:45;13.60;99.90
18067;DHT22;9158;51.528;7.192;2022-09-16T00:44:58;13.60;99.90
18067;DHT22;9158;51.528;7.192;2022-09-16T00:45:30;13.60;99.90
18067;DHT22;9158;51.528;7.192;2022-09-16T00:46:03;13.60;99.90
18067;DHT22;9158;51.528;7.192;2022-09-16T00:46:38;13.60;99.90
18067;DHT22;9158;51.528;7.192;2022-09-16T00:47:10;13.60;99.90
18067;DHT22;9158;51.528;7.192;2022-09-16T00:47:43;13.60;99.90
18067;DHT22;9158;51.528;7.192;2022-09-16T00:48:20;13.60;99.90
18067;DHT22;9158;51.528;7.192;2022-09-16T00:48:51;13.60;99.90
18067;DHT22;9158;51.528;7.192;2022-09-16T00:49:27;13.60;99.90
18067;DHT22;9158;51.528;7.192;2022-09-16T00:50:05;13.60;99.90
18067;DHT22;9158;51.528;7.192;2022-09-16T00:50:40;13.60;99.90
18067;DHT22;9158;51.528;7.192;2022-09-16T00:51:17;13.60;99.90
18067;DHT22;9158;51.528;7.192;2022-09-16T00:51:50;13.60;99.90
18067;DHT22;9158;51.528;7.192;2022-09-16T00:52:22;13.60;99.90
18067;DHT22;9158;51.528;7.192;2022-09-16T00:52:55;13.60;99.90
18067;DHT22;9158;51.528;7.192;2022-09-16T00:53:30;13.60;99.90
18067;DHT22;9158;51.528;7.192;2022-09-16T00:54:03;13.60;99.90
18067;DHT22;9158;51.528;7.192;2022-09-16T00:54:40;13.60;99.90
18067;DHT22;9158;51.528;7.192;2022-09-16T00:55:14;13.60;99.90
18067;DHT22;9158;51.528;7.192;2022-09-16T00:55:47;13.60;99.90
18067;DHT22;9158;51.528;7.192;2022-09-16T00:56:19;13.60;99.90
18067;DHT22;9158;51.528;7.192;2022-09-16T00:56:56;13.60;99.90
18067;DHT22;9158;51.528;7.192;2022-09-16T00:57:28;13.60;99.90
18067;DHT22;9158;51.528;7.192;2022-09-16T00:58:04;15.90;99.90
18067;DHT22;9158;51.528;7.192;2022-09-16T00:58:42;13.60;99.90
18067;DHT22;9158;51.528;7.192;2022-09-16T00:59:17;13.60;99.90
18067;DHT22;9158;51.528;7.192;2022-09-16T00:59:52;13.60;99.90
18067;DHT22;9158;51.528;7.192;2022-09-16T01:00:25;13.60;99.90
18067;DHT22;9158;51.528;7.192;2022-09-16T01:00:56;13.60;99.90
18067;DHT22;9158;51.528;7.192;2022-09-16T01:01:28;13.60;99.90
18067;DHT22;9158;51.528;7.192;2022-09-16T01:02:06;13.60;99.90
18067;DHT22;9158;51.528;7.192;2022-09-16T01:02:38;13.60;99.90
18067;DHT22;9158;51.528;7.192;2022-09-16T01:03:10;13.60;99.90
18067;DHT22;9158;51.528;7.192;2022-09-16T01:03:44;13.60;99.90
18067;DHT22;9158;51.528;7.192;2022-09-16T01:04:18;13.60;99.90
18067;DHT22;9158;51.528;7.192;2022-09-16T01:04:56;13.60;99.90
18067;DHT22;9158;51.528;7.192;2022-09-16T01:05:29;13.60;99.90
18067;DHT22;9158;51.528;7.192;2022-09-16T01:06:00;13.60;99.90
18067;DHT22;9158;51.528;7.192;2022-09-16T01:06:35;13.60;99.90
18067;DHT22;9158;51.528;7.192;2022-09-16T01:07:08;13.60;99.90
18067;DHT22;9158;51.528;7.192;2022-09-16T01:07:43;13.50;99.90
18067;DHT22;9158;51.528;7.192;2022-09-16T01:08:14;13.60;99.90
18067;DHT22;9158;51.528;7.192;2022-09-16T01:08:49;13.60;99.90
18067;DHT22;9158;51.528;7.192;2022-09-16T01:09:22;13.60;99.90
18067;DHT22;9158;51.528;7.192;2022-09-16T01:09:53;13.60;99.90
18067;DHT22;9158;51.528;7.192;2022-09-16T01:10:25;13.60;99.90
18067;DHT22;9158;51.528;7.192;2022-09-16T01:10:57;13.60;99.90
18067;DHT22;9158;51.528;7.192;2022-09-16T01:11:27;13.60;99.90
18067;DHT22;9158;51.528;7.192;2022-09-16T01:12:01;13.60;99.90
18067;DHT22;9158;51.528;7.192;2022-09-16T01:12:33;13.60;99.90
18067;DHT22;9158;51.528;7.192;2022-09-16T01:13:07;13.60;99.90
18067;DHT22;9158;51.528;7.192;2022-09-16T01:13:40;13.50;99.90
18067;DHT22;9158;51.528;7.192;2022-09-16T01:14:12;13.60;99.90
18067;DHT22;9158;51.528;7.192;2022-09-16T01:15:09;13.60;99.90
18067;DHT22;9158;51.528;7.192;2022-09-16T01:15:44;13.60;99.90
18067;DHT22;9158;51.528;7.192;2022-09-16T01:16:22;13.50;99.90
18067;DHT22;9158;51.528;7.192;2022-09-16T01:16:58;13.50;99.90
18067;DHT22;9158;51.528;7.192;2022-09-16T01:17:43;13.50;99.90
18067;DHT22;9158;51.528;7.192;2022-09-16T01:18:22;13.50;99.90
18067;DHT22;9158;51.528;7.192;2022-09-16T01:19:04;13.50;99.90
18067;DHT22;9158;51.528;7.192;2022-09-16T01:21:17;13.50;99.90
18067;DHT22;9158;51.528;7.192;2022-09-16T01:22:01;13.50;99.90
18067;DHT22;9158;51.528;7.192;2022-09-16T01:22:45;13.50;99.90
18067;DHT22;9158;51.528;7.192;2022-09-16T01:23:40;13.50;99.90
18067;DHT22;9158;51.528;7.192;2022-09-16T01:24:41;13.50;99.90
18067;DHT22;9158;51.528;7.192;2022-09-16T01:25:23;13.50;99.90
18067;DHT22;9158;51.528;7.192;2022-09-16T01:26:09;13.50;99.90
18067;DHT22;9158;51.528;7.192;2022-09-16T01:30:17;13.50;99.90
18067;DHT22;9158;51.528;7.192;2022-09-16T01:31:01;13.50;99.90
18067;DHT22;9158;51.528;7.192;2022-09-16T01:31:39;13.50;99.90
18067;DHT22;9158;51.528;7.192;2022-09-16T01:32:16;13.50;99.90
18067;DHT22;9158;51.528;7.192;2022-09-16T01:32:57;13.50;99.90
18067;DHT22;9158;51.528;7.192;2022-09-16T01:33:38;13.50;99.90
18067;DHT22;9158;51.528;7.192;2022-09-16T01:34:15;13.50;99.90
18067;DHT22;9158;51.528;7.192;2022-09-16T01:34:52;13.50;99.90
18067;DHT22;9158;51.528;7.192;2022-09-16T01:35:38;13.50;99.90
18067;DHT22;9158;51.528;7.192;2022-09-16T01:36:24;13.50;99.90
18067;DHT22;9158;51.528;7.192;2022-09-16T01:37:02;13.50;99.90
18067;DHT22;9158;51.528;7.192;2022-09-16T01:37:43;13.90;99.90
18067;DHT22;9158;51.528;7.192;2022-09-16T01:38:33;13.50;99.90
18067;DHT22;9158;51.528;7.192;2022-09-16T01:39:17;13.50;99.90
18067;DHT22;9158;51.528;7.192;2022-09-16T01:39:57;13.50;99.90
18067;DHT22;9158;51.528;7.192;2022-09-16T01:40:33;13.50;99.90
18067;DHT22;9158;51.528;7.192;2022-09-16T01:41:11;13.50;99.90
18067;DHT22;9158;51.528;7.192;2022-09-16T01:42:00;13.50;99.90
18067;DHT22;9158;51.528;7.192;2022-09-16T01:42:38;13.50;99.90
18067;DHT22;9158;51.528;7.192;2022-09-16T01:43:16;13.50;99.90
18067;DHT22;9158;51.528;7.192;2022-09-16T01:43:52;13.50;99.90
18067;DHT22;9158;51.528;7.192;2022-09-16T01:44:31;13.50;99.90
18067;DHT22;9158;51.528;7.192;2022-09-16T01:45:14;13.50;99.90
18067;DHT22;9158;51.528;7.192;2022-09-16T01:45:54;13.60;99.90
18067;DHT22;9158;51.528;7.192;2022-09-16T01:46:32;13.50;99.90
18067;DHT22;9158;51.528;7.192;2022-09-16T01:47:11;13.50;99.90
18067;DHT22;9158;51.528;7.192;2022-09-16T01:47:53;13.50;99.90
18067;DHT22;9158;51.528;7.192;2022-09-16T01:48:32;13.50;99.90
18067;DHT22;9158;51.528;7.192;2022-09-16T01:49:15;13.50;99.90
18067;DHT22;9158;51.528;7.192;2022-09-16T01:49:55;13.60;99.90
18067;DHT22;9158;51.528;7.192;2022-09-16T01:50:30;13.50;99.90
18067;DHT22;9158;51.528;7.192;2022-09-16T01:51:06;13.50;99.90
18067;DHT22;9158;51.528;7.192;2022-09-16T01:51:42;13.50;99.90
18067;DHT22;9158;51.528;7.192;2022-09-16T01:52:20;13.50;99.90
18067;DHT22;9158;51.528;7.192;2022-09-16T01:53:00;13.50;99.90
18067;DHT22;9158;51.528;7.192;2022-09-16T01:53:37;13.50;99.90
18067;DHT22;9158;51.528;7.192;2022-09-16T01:54:11;13.60;99.90
18067;DHT22;9158;51.528;7.192;2022-09-16T01:54:48;13.60;99.90
18067;DHT22;9158;51.528;7.192;2022-09-16T01:55:25;13.60;99.90
18067;DHT22;9158;51.528;7.192;2022-09-16T01:56:02;13.60;99.90
18067;DHT22;9158;51.528;7.192;2022-09-16T01:56:39;13.50;99.90
18067;DHT22;9158;51.528;7.192;2022-09-16T01:57:14;13.60;99.90
18067;DHT22;9158;51.528;7.192;2022-09-16T01:57:50;13.60;99.90
18067;DHT22;9158;51.528;7.192;2022-09-16T01:58:26;14.50;99.90
18067;DHT22;9158;51.528;7.192;2022-09-16T01:59:02;13.60;99.90
18067;DHT22;9158;51.528;7.192;2022-09-16T01:59:37;13.60;99.90
18067;DHT22;9158;51.528;7.192;2022-09-16T02:00:12;13.60;99.90
18067;DHT22;9158;51.528;7.192;2022-09-16T02:00:45;13.60;99.90
18067;DHT22;9158;51.528;7.192;2022-09-16T02:01:21;13.50;99.90
18067;DHT22;9158;51.528;7.192;2022-09-16T02:01:58;13.50;99.90
18067;DHT22;9158;51.528;7.192;2022-09-16T02:02:35;13.50;99.90
18067;DHT22;9158;51.528;7.192;2022-09-16T02:03:10;13.50;99.90
18067;DHT22;9158;51.528;7.192;2022-09-16T02:03:48;13.50;99.90
18067;DHT22;9158;51.528;7.192;2022-09-16T02:04:23;13.50;99.90
18067;DHT22;9158;51.528;7.192;2022-09-16T02:04:56;13.50;99.90
18067;DHT22;9158;51.528;7.192;2022-09-16T02:05:33;13.50;99.90
18067;DHT22;9158;51.528;7.192;2022-09-16T02:06:08;13.50;99.90
18067;DHT22;9158;51.528;7.192;2022-09-16T02:06:41;13.50;99.90
18067;DHT22;9158;51.528;7.192;2022-09-16T02:07:18;13.40;99.90
18067;DHT22;9158;51.528;7.192;2022-09-16T02:07:54;13.50;99.90
18067;DHT22;9158;51.528;7.192;2022-09-16T02:08:30;13.50;99.90
18067;DHT22;9158;51.528;7.192;2022-09-16T02:09:06;13.50;99.90
18067;DHT22;9158;51.528;7.192;2022-09-16T02:09:40;13.40;99.90
18067;DHT22;9158;51.528;7.192;2022-09-16T02:10:17;13.40;99.90
18067;DHT22;9158;51.528;7.192;2022-09-16T02:10:54;13.40;99.90
18067;DHT22;9158;51.528;7.192;2022-09-16T02:11:28;13.40;99.90
18067;DHT22;9158;51.528;7.192;2022-09-16T02:12:01;13.40;99.90
18067;DHT22;9158;51.528;7.192;2022-09-16T02:12:38;13.40;99.90
18067;DHT22;9158;51.528;7.192;2022-09-16T02:13:16;13.40;99.90
18067;DHT22;9158;51.528;7.192;2022-09-16T02:13:50;13.40;99.90
18067;DHT22;9158;51.528;7.192;2022-09-16T02:14:26;13.40;99.90
18067;DHT22;9158;51.528;7.192;2022-09-16T02:15:01;13.40;1.00
18067;DHT22;9158;51.528;7.192;2022-09-16T02:15:33;13.40;99.90
18067;DHT22;9158;51.528;7.192;2022-09-16T02:16:09;13.40;99.90
18067;DHT22;9158;51.528;7.192;2022-09-16T02:16:45;13.40;99.90
18067;DHT22;9158;51.528;7.192;2022-09-16T02:17:21;13.40;1.00
18067;DHT22;9158;51.528;7.192;2022-09-16T02:17:58;13.40;1.00
18067;DHT22;9158;51.528;7.192;2022-09-16T02:18:33;13.40;1.00
18067;DHT22;9158;51.528;7.192;2022-09-16T02:19:09;13.40;1.00
18067;DHT22;9158;51.528;7.192;2022-09-16T02:19:45;13.40;99.90
18067;DHT22;9158;51.528;7.192;2022-09-16T02:20:21;13.40;1.00
18067;DHT22;9158;51.528;7.192;2022-09-16T02:20:56;13.40;1.00
18067;DHT22;9158;51.528;7.192;2022-09-16T02:21:31;13.40;1.00
18067;DHT22;9158;51.528;7.192;2022-09-16T02:22:07;13.40;1.00
18067;DHT22;9158;51.528;7.192;2022-09-16T02:22:41;13.40;1.00
18067;DHT22;9158;51.528;7.192;2022-09-16T02:23:17;13.40;1.00
18067;DHT22;9158;51.528;7.192;2022-09-16T02:23:50;13.40;1.00
18067;DHT22;9158;51.528;7.192;2022-09-16T02:24:23;13.40;1.00
18067;DHT22;9158;51.528;7.192;2022-09-16T02:24:58;13.40;1.00
18067;DHT22;9158;51.528;7.192;2022-09-16T02:25:33;13.40;1.00
18067;DHT22;9158;51.528;7.192;2022-09-16T02:26:07;13.40;1.00
18067;DHT22;9158;51.528;7.192;2022-09-16T02:26:43;13.40;1.00
18067;DHT22;9158;51.528;7.192;2022-09-16T02:27:17;13.40;1.00
18067;DHT22;9158;51.528;7.192;2022-09-16T02:27:49;13.40;1.00
18067;DHT22;9158;51.528;7.192;2022-09-16T02:28:24;13.40;1.00
18067;DHT22;9158;51.528;7.192;2022-09-16T02:28:57;13.40;1.00
18067;DHT22;9158;51.528;7.192;2022-09-16T02:29:32;13.40;1.00
18067;DHT22;9158;51.528;7.192;2022-09-16T02:30:09;13.40;1.00
18067;DHT22;9158;51.528;7.192;2022-09-16T02:30:42;13.40;1.00
18067;DHT22;9158;51.528;7.192;2022-09-16T02:31:16;13.40;1.00
18067;DHT22;9158;51.528;7.192;2022-09-16T02:31:54;13.40;1.00
18067;DHT22;9158;51.528;7.192;2022-09-16T02:32:28;13.40;1.00
18067;DHT22;9158;51.528;7.192;2022-09-16T02:33:06;13.40;1.00
18067;DHT22;9158;51.528;7.192;2022-09-16T02:33:42;13.30;1.00
18067;DHT22;9158;51.528;7.192;2022-09-16T02:34:18;13.30;1.00
18067;DHT22;9158;51.528;7.192;2022-09-16T02:34:51;13.30;1.00
18067;DHT22;9158;51.528;7.192;2022-09-16T02:35:24;13.30;1.00
18067;DHT22;9158;51.528;7.192;2022-09-16T02:35:58;13.30;1.00
18067;DHT22;9158;51.528;7.192;2022-09-16T02:36:33;13.30;1.00
18067;DHT22;9158;51.528;7.192;2022-09-16T02:37:08;13.30;1.00
18067;DHT22;9158;51.528;7.192;2022-09-16T02:37:44;13.30;1.00
18067;DHT22;9158;51.528;7.192;2022-09-16T02:38:21;13.30;1.00
18067;DHT22;9158;51.528;7.192;2022-09-16T02:38:58;13.30;1.00
18067;DHT22;9158;51.528;7.192;2022-09-16T02:39:35;13.30;1.00
18067;DHT22;9158;51.528;7.192;2022-09-16T02:40:11;13.30;1.00
18067;DHT22;9158;51.528;7.192;2022-09-16T02:40:49;13.30;1.00
18067;DHT22;9158;51.528;7.192;2022-09-16T02:41:21;13.30;1.00
18067;DHT22;9158;51.528;7.192;2022-09-16T02:41:53;13.30;1.00
18067;DHT22;9158;51.528;7.192;2022-09-16T02:42:26;13.30;1.00
18067;DHT22;9158;51.528;7.192;2022-09-16T02:42:58;13.40;1.00
18067;DHT22;9158;51.528;7.192;2022-09-16T02:43:29;13.40;1.00
18067;DHT22;9158;51.528;7.192;2022-09-16T02:44:02;13.30;1.00
18067;DHT22;9158;51.528;7.192;2022-09-16T02:44:33;13.30;1.00
18067;DHT22;9158;51.528;7.192;2022-09-16T02:45:05;13.30;1.00
18067;DHT22;9158;51.528;7.192;2022-09-16T02:45:44;13.30;1.00
18067;DHT22;9158;51.528;7.192;2022-09-16T02:46:23;13.30;1.00
18067;DHT22;9158;51.528;7.192;2022-09-16T02:46:59;13.30;1.00
18067;DHT22;9158;51.528;7.192;2022-09-16T02:47:36;13.20;1.00
18067;DHT22;9158;51.528;7.192;2022-09-16T02:48:15;13.20;1.00
18067;DHT22;9158;51.528;7.192;2022-09-16T02:48:55;13.20;1.00
18067;DHT22;9158;51.528;7.192;2022-09-16T02:49:34;13.20;1.00
18067;DHT22;9158;51.528;7.192;2022-09-16T02:50:14;13.20;1.00
18067;DHT22;9158;51.528;7.192;2022-09-16T02:50:50;13.20;1.00
18067;DHT22;9158;51.528;7.192;2022-09-16T02:51:30;13.20;1.00
18067;DHT22;9158;51.528;7.192;2022-09-16T02:52:09;13.20;1.00
18067;DHT22;9158;51.528;7.192;2022-09-16T02:52:46;13.20;1.00
18067;DHT22;9158;51.528;7.192;2022-09-16T02:53:29;13.20;1.00
18067;DHT22;9158;51.528;7.192;2022-09-16T02:54:05;13.20;1.00
18067;DHT22;9158;51.528;7.192;2022-09-16T02:54:44;13.10;1.00
18067;DHT22;9158;51.528;7.192;2022-09-16T02:55:24;13.10;1.00
18067;DHT22;9158;51.528;7.192;2022-09-16T02:56:02;13.10;1.00
18067;DHT22;9158;51.528;7.192;2022-09-16T02:56:39;13.10;1.00
18067;DHT22;9158;51.528;7.192;2022-09-16T02:57:13;13.10;1.00
18067;DHT22;9158;51.528;7.192;2022-09-16T02:57:44;13.10;1.00
18067;DHT22;9158;51.528;7.192;2022-09-16T02:58:15;13.10;1.00
18067;DHT22;9158;51.528;7.192;2022-09-16T02:58:46;13.10;1.00
18067;DHT22;9158;51.528;7.192;2022-09-16T02:59:17;13.10;1.00
18067;DHT22;9158;51.528;7.192;2022-09-16T02:59:49;13.10;1.00
18067;DHT22;9158;51.528;7.192;2022-09-16T03:00:20;13.20;1.00
18067;DHT22;9158;51.528;7.192;2022-09-16T03:00:53;13.20;1.00
18067;DHT22;9158;51.528;7.192;2022-09-16T03:01:25;13.10;1.00
18067;DHT22;9158;51.528;7.192;2022-09-16T03:01:58;13.20;1.00
18067;DHT22;9158;51.528;7.192;2022-09-16T03:02:31;13.10;1.00
18067;DHT22;9158;51.528;7.192;2022-09-16T03:03:03;13.10;1.00
18067;DHT22;9158;51.528;7.192;2022-09-16T03:03:34;13.10;1.00
18067;DHT22;9158;51.528;7.192;2022-09-16T03:04:06;13.10;1.00
18067;DHT22;9158;51.528;7.192;2022-09-16T03:04:37;13.10;1.00
18067;DHT22;9158;51.528;7.192;2022-09-16T03:05:08;13.10;1.00
18067;DHT22;9158;51.528;7.192;2022-09-16T03:06:05;13.10;1.00
18067;DHT22;9158;51.528;7.192;2022-09-16T03:06:40;13.10;1.00
18067;DHT22;9158;51.528;7.192;2022-09-16T03:07:12;13.10;1.00
18067;DHT22;9158;51.528;7.192;2022-09-16T03:07:44;13.10;1.00
18067;DHT22;9158;51.528;7.192;2022-09-16T03:08:15;13.10;1.00
18067;DHT22;9158;51.528;7.192;2022-09-16T03:08:47;13.00;1.00
18067;DHT22;9158;51.528;7.192;2022-09-16T03:09:19;13.00;1.00
18067;DHT22;9158;51.528;7.192;2022-09-16T03:09:53;13.00;1.00
18067;DHT22;9158;51.528;7.192;2022-09-16T03:10:27;13.00;1.00
18067;DHT22;9158;51.528;7.192;2022-09-16T03:11:03;13.00;1.00
18067;DHT22;9158;51.528;7.192;2022-09-16T03:12:00;13.00;1.00
18067;DHT22;9158;51.528;7.192;2022-09-16T03:12:49;13.10;1.00
18067;DHT22;9158;51.528;7.192;2022-09-16T03:13:29;13.10;1.00
18067;DHT22;9158;51.528;7.192;2022-09-16T03:15:10;13.10;1.00
18067;DHT22;9158;51.528;7.192;2022-09-16T03:15:54;13.10;1.00
18067;DHT22;9158;51.528;7.192;2022-09-16T03:16:33;13.10;1.00
18067;DHT22;9158;51.528;7.192;2022-09-16T03:17:16;13.00;1.00
18067;DHT22;9158;51.528;7.192;2022-09-16T03:18:04;13.00;1.00
18067;DHT22;9158;51.528;7.192;2022-09-16T03:18:50;13.10;1.00
18067;DHT22;9158;51.528;7.192;2022-09-16T03:19:30;13.10;1.00
18067;DHT22;9158;51.528;7.192;2022-09-16T03:20:15;13.00;1.00
18067;DHT22;9158;51.528;7.192;2022-09-16T03:20:53;13.00;1.00
18067;DHT22;9158;51.528;7.192;2022-09-16T03:21:33;13.00;1.00
18067;DHT22;9158;51.528;7.192;2022-09-16T03:22:15;13.00;1.00
18067;DHT22;9158;51.528;7.192;2022-09-16T03:22:53;13.00;1.00
18067;DHT22;9158;51.528;7.192;2022-09-16T03:23:41;13.00;1.00
18067;DHT22;9158;51.528;7.192;2022-09-16T03:24:22;13.00;1.00
18067;DHT22;9158;51.528;7.192;2022-09-16T03:25:01;13.00;1.00
18067;DHT22;9158;51.528;7.192;2022-09-16T03:25:43;13.00;1.00
18067;DHT22;9158;51.528;7.192;2022-09-16T03:26:24;13.00;1.00
18067;DHT22;9158;51.528;7.192;2022-09-16T03:27:02;13.00;1.00
18067;DHT22;9158;51.528;7.192;2022-09-16T03:27:41;13.00;1.00
18067;DHT22;9158;51.528;7.192;2022-09-16T03:28:18;13.00;1.00
18067;DHT22;9158;51.528;7.192;2022-09-16T03:28:56;13.00;1.00
18067;DHT22;9158;51.528;7.192;2022-09-16T03:29:34;13.00;1.00
18067;DHT22;9158;51.528;7.192;2022-09-16T03:30:09;13.00;1.00
18067;DHT22;9158;51.528;7.192;2022-09-16T03:30:47;13.00;1.00
18067;DHT22;9158;51.528;7.192;2022-09-16T03:31:26;13.00;1.00
18067;DHT22;9158;51.528;7.192;2022-09-16T03:32:04;12.90;1.00
18067;DHT22;9158;51.528;7.192;2022-09-16T03:32:42;12.90;1.00
18067;DHT22;9158;51.528;7.192;2022-09-16T03:33:21;12.90;1.00
18067;DHT22;9158;51.528;7.192;2022-09-16T03:33:59;12.90;1.00
18067;DHT22;9158;51.528;7.192;2022-09-16T03:34:36;12.90;1.00
18067;DHT22;9158;51.528;7.192;2022-09-16T03:35:13;12.90;1.00
18067;DHT22;9158;51.528;7.192;2022-09-16T03:35:47;12.90;1.00
18067;DHT22;9158;51.528;7.192;2022-09-16T03:36:22;12.90;1.00
18067;DHT22;9158;51.528;7.192;2022-09-16T03:37:01;12.90;1.00
18067;DHT22;9158;51.528;7.192;2022-09-16T03:37:34;12.90;1.00
18067;DHT22;9158;51.528;7.192;2022-09-16T03:38:09;12.90;1.00
18067;DHT22;9158;51.528;7.192;2022-09-16T03:38:43;12.90;1.00
18067;DHT22;9158;51.528;7.192;2022-09-16T03:39:15;12.90;1.00
18067;DHT22;9158;51.528;7.192;2022-09-16T03:39:50;12.90;1.00
18067;DHT22;9158;51.528;7.192;2022-09-16T03:40:23;12.90;1.00
18067;DHT22;9158;51.528;7.192;2022-09-16T03:40:55;13.00;1.00
18067;DHT22;9158;51.528;7.192;2022-09-16T03:41:27;13.00;1.00
18067;DHT22;9158;51.528;7.192;2022-09-16T03:42:02;13.00;1.00
18067;DHT22;9158;51.528;7.192;2022-09-16T03:42:34;13.00;1.00
18067;DHT22;9158;51.528;7.192;2022-09-16T03:43:12;13.00;1.00
18067;DHT22;9158;51.528;7.192;2022-09-16T03:43:52;13.00;1.00
18067;DHT22;9158;51.528;7.192;2022-09-16T03:44:30;13.00;1.00
18067;DHT22;9158;51.528;7.192;2022-09-16T03:45:03;13.00;1.00
18067;DHT22;9158;51.528;7.192;2022-09-16T03:45:34;13.00;1.00
18067;DHT22;9158;51.528;7.192;2022-09-16T03:46:09;13.00;1.00
18067;DHT22;9158;51.528;7.192;2022-09-16T03:46:41;13.00;1.00
18067;DHT22;9158;51.528;7.192;2022-09-16T03:47:12;13.00;1.00
18067;DHT22;9158;51.528;7.192;2022-09-16T03:47:46;13.00;1.00
18067;DHT22;9158;51.528;7.192;2022-09-16T03:48:19;13.00;1.00
18067;DHT22;9158;51.528;7.192;2022-09-16T03:48:49;13.00;1.00
18067;DHT22;9158;51.528;7.192;2022-09-16T03:49:20;13.00;1.00
18067;DHT22;9158;51.528;7.192;2022-09-16T03:49:52;13.00;1.00
18067;DHT22;9158;51.528;7.192;2022-09-16T03:50:23;13.00;1.00
18067;DHT22;9158;51.528;7.192;2022-09-16T03:50:55;13.00;1.00
18067;DHT22;9158;51.528;7.192;2022-09-16T03:51:26;13.00;1.00
18067;DHT22;9158;51.528;7.192;2022-09-16T03:51:57;13.00;1.00
18067;DHT22;9158;51.528;7.192;2022-09-16T03:52:28;13.00;1.00
18067;DHT22;9158;51.528;7.192;2022-09-16T03:53:00;12.90;1.00
18067;DHT22;9158;51.528;7.192;2022-09-16T03:53:31;12.90;1.00
18067;DHT22;9158;51.528;7.192;2022-09-16T03:54:02;12.90;1.00
18067;DHT22;9158;51.528;7.192;2022-09-16T03:54:35;12.90;1.00
18067;DHT22;9158;51.528;7.192;2022-09-16T03:55:07;12.90;1.00